Time;durP1;ratioP1;P1;durP2;ratioP2;P2;SDS_P1;SDS_P2;PMS_P1;PMS_P2;Temp;Humidity;BMP_temperature;BMP_pressure;BME280_temperature;BME280_humidity;BME280_pressure;Samples;Min_cycle;Max_cycle;Signal;HPM_P1;HPM_P2
2022/04/25 00:01:17;;;;;;;;;;;22.30;44.30;;;;;;6302884;27;20030;-54
2022/04/25 00:04:18;;;;;;;;;;;22.30;44.30;;;;;;6298223;27;19931;-53
2022/04/25 00:07:19;;;;;;;;;;;22.30;44.30;;;;;;6307592;27;19962;-51
2022/04/25 00:10:21;;;;;;;;;;;22.30;44.30;;;;;;6310208;27;20122;-48
2022/04/25 00:13:23;;;;;;;;;;;22.30;44.30;;;;;;6290558;28;20829;-52
2022/04/25 00:16:25;;;;;;;;;;;22.30;44.30;;;;;;6300386;27;19971;-51
2022/04/25 00:19:26;;;;;;;;;;;22.40;44.30;;;;;;6311874;27;21098;-52
2022/04/25 00:22:28;;;;;;;;;;;22.10;44.20;;;;;;6309519;27;20043;-49
2022/04/25 00:25:29;;;;;;;;;;;22.30;44.30;;;;;;6300124;27;20143;-54
2022/04/25 00:28:31;;;;;;;;;;;22.30;44.30;;;;;;6308441;27;20037;-49
2022/04/25 00:31:32;;;;;;;;;;;22.00;44.10;;;;;;6305416;27;20946;-52
2022/04/25 00:34:34;;;;;;;;;;;22.20;44.20;;;;;;6303159;28;20069;-51
2022/04/25 00:37:36;;;;;;;;;;;22.20;44.20;;;;;;6305479;27;19939;-51
2022/04/25 00:40:37;;;;;;;;;;;22.30;44.20;;;;;;6305523;27;19978;-51
2022/04/25 00:43:39;;;;;;;;;;;22.20;44.10;;;;;;6305404;28;19966;-50
2022/04/25 00:46:41;;;;;;;;;;;22.20;44.50;;;;;;6305351;27;19939;-51
2022/04/25 00:49:43;;;;;;;;;;;22.10;44.10;;;;;;6308724;27;20779;-52
2022/04/25 00:52:44;;;;;;;;;;;21.80;43.90;;;;;;6298292;27;20008;-52
2022/04/25 00:55:46;;;;;;;;;;;22.20;44.20;;;;;;6298578;27;20896;-50
2022/04/25 00:58:49;;;;;;;;;;;22.40;44.30;;;;;;6307943;27;19993;-51
2022/04/25 01:01:52;;;;;;;;;;;22.30;44.20;;;;;;6306532;27;19970;-50
2022/04/25 01:04:54;;;;;;;;;;;22.20;44.20;;;;;;6297254;27;20034;-49
2022/04/25 01:07:55;;;;;;;;;;;22.20;44.20;;;;;;6307644;27;19931;-54
2022/04/25 01:10:57;;;;;;;;;;;22.20;44.20;;;;;;6307887;27;19924;-49
2022/04/25 01:14:09;;;;;;;;;;;22.20;44.20;;;;;;6304465;27;19965;-52
2022/04/25 01:17:10;;;;;;;;;;;22.20;44.20;;;;;;6306014;27;21671;-49
2022/04/25 01:20:11;;;;;;;;;;;22.10;44.10;;;;;;6306865;27;20021;-50
2022/04/25 01:29:46;;;;;;;;;;;22.10;44.10;;;;;;6305896;28;20772;-48
2022/04/25 01:32:48;;;;;;;;;;;22.20;44.10;;;;;;6310428;27;19927;-50
2022/04/25 01:35:49;;;;;;;;;;;22.30;44.20;;;;;;6299737;27;19931;-52
2022/04/25 01:38:52;;;;;;;;;;;22.10;44.10;;;;;;6303033;27;19928;-49
2022/04/25 01:41:54;;;;;;;;;;;22.20;44.10;;;;;;6309410;27;19931;-49
2022/04/25 01:44:55;;;;;;;;;;;22.10;44.00;;;;;;6296330;27;19968;-52
2022/04/25 01:47:56;;;;;;;;;;;22.20;44.10;;;;;;6306528;27;19973;-48
2022/04/25 01:50:58;;;;;;;;;;;22.10;44.00;;;;;;6309267;27;20062;-52
2022/04/25 01:54:00;;;;;;;;;;;22.10;44.00;;;;;;6303372;27;19932;-49
2022/04/25 01:57:01;;;;;;;;;;;22.30;44.20;;;;;;6306831;27;19931;-48
2022/04/25 02:00:03;;;;;;;;;;;22.20;44.10;;;;;;6292417;28;19974;-49
2022/04/25 02:03:06;;;;;;;;;;;22.20;44.20;;;;;;6309388;27;19927;-49
2022/04/25 02:06:07;;;;;;;;;;;22.10;44.00;;;;;;6298539;27;19931;-50
2022/04/25 02:09:09;;;;;;;;;;;22.00;44.00;;;;;;6309062;27;19972;-49
2022/04/25 02:12:12;;;;;;;;;;;22.10;44.00;;;;;;6309666;27;19928;-52
2022/04/25 02:15:13;;;;;;;;;;;22.00;44.00;;;;;;6297944;27;19935;-51
2022/04/25 02:18:16;;;;;;;;;;;22.20;44.00;;;;;;6303794;27;20823;-50
2022/04/25 02:21:17;;;;;;;;;;;22.00;44.00;;;;;;6307742;27;19923;-53
2022/04/25 02:24:19;;;;;;;;;;;22.10;44.00;;;;;;6302681;27;20891;-48
2022/04/25 02:27:21;;;;;;;;;;;21.90;43.90;;;;;;6283097;28;20034;-51
2022/04/25 02:30:23;;;;;;;;;;;20.90;43.40;;;;;;6310769;27;19938;-50
2022/04/25 02:33:24;;;;;;;;;;;22.10;44.00;;;;;;6307283;27;19934;-52
2022/04/25 02:36:26;;;;;;;;;;;22.10;44.00;;;;;;6286840;28;19981;-50
2022/04/25 02:39:28;;;;;;;;;;;22.10;44.10;;;;;;6313352;27;19935;-50
2022/04/25 02:42:29;;;;;;;;;;;22.10;44.00;;;;;;6311689;28;20017;-50
2022/04/25 02:45:30;;;;;;;;;;;22.00;44.00;;;;;;6303128;27;20038;-50
2022/04/25 02:48:32;;;;;;;;;;;22.00;43.90;;;;;;6312037;27;19950;-52
2022/04/25 02:51:33;;;;;;;;;;;21.90;44.50;;;;;;6293041;27;19963;-51
2022/04/25 02:54:35;;;;;;;;;;;21.90;43.90;;;;;;6306458;27;20100;-48
2022/04/25 02:57:36;;;;;;;;;;;22.00;43.90;;;;;;6312054;27;19927;-50
2022/04/25 03:00:38;;;;;;;;;;;21.80;43.80;;;;;;6310187;27;19924;-50
2022/04/25 03:03:39;;;;;;;;;;;22.00;43.90;;;;;;6311216;27;20568;-52
2022/04/25 03:06:41;;;;;;;;;;;22.00;43.90;;;;;;6307429;27;20562;-50
2022/04/25 03:09:43;;;;;;;;;;;22.00;43.90;;;;;;6311545;27;19934;-51
2022/04/25 03:12:44;;;;;;;;;;;22.00;43.90;;;;;;6311961;27;20935;-49
2022/04/25 03:15:47;;;;;;;;;;;21.90;43.80;;;;;;6303124;28;19985;-49
2022/04/25 03:18:49;;;;;;;;;;;22.00;43.80;;;;;;6292014;27;21122;-51
2022/04/25 03:21:50;;;;;;;;;;;21.90;43.80;;;;;;6313302;27;19923;-47
2022/04/25 03:24:52;;;;;;;;;;;21.90;43.80;;;;;;6302136;27;20070;-50
2022/04/25 03:27:54;;;;;;;;;;;21.90;43.80;;;;;;6299187;27;19935;-51
2022/04/25 03:30:55;;;;;;;;;;;21.90;43.80;;;;;;6305420;27;20894;-50
2022/04/25 03:33:57;;;;;;;;;;;22.00;43.80;;;;;;6305173;27;19932;-50
2022/04/25 03:36:58;;;;;;;;;;;22.00;43.80;;;;;;6312736;27;20054;-52
2022/04/25 03:40:00;;;;;;;;;;;21.80;43.80;;;;;;6314112;27;20022;-51
2022/04/25 03:43:01;;;;;;;;;;;21.90;43.80;;;;;;6308868;27;19931;-52
2022/04/25 03:46:03;;;;;;;;;;;22.00;43.80;;;;;;6312191;27;19934;-50
2022/04/25 03:49:04;;;;;;;;;;;22.00;43.80;;;;;;6312136;27;19939;-48
2022/04/25 03:52:07;;;;;;;;;;;21.80;43.70;;;;;;6311613;27;20116;-48
2022/04/25 03:58:26;;;;;;;;;;;21.80;43.70;;;;;;6316961;28;20044;-52
2022/04/25 04:01:28;;;;;;;;;;;21.70;43.60;;;;;;6290613;28;19932;-48
2022/04/25 04:04:29;;;;;;;;;;;22.00;43.80;;;;;;6310236;27;20696;-53
2022/04/25 04:07:31;;;;;;;;;;;21.80;43.70;;;;;;6315254;27;19931;-49
2022/04/25 04:10:33;;;;;;;;;;;21.80;43.70;;;;;;6316858;27;20703;-49
2022/04/25 04:13:35;;;;;;;;;;;21.80;43.70;;;;;;6308140;27;19938;-50
2022/04/25 04:16:36;;;;;;;;;;;21.60;43.60;;;;;;6314968;27;19932;-49
2022/04/25 04:19:38;;;;;;;;;;;21.70;43.60;;;;;;6312283;27;20780;-54
2022/04/25 04:22:40;;;;;;;;;;;21.80;43.60;;;;;;6303950;27;19965;-47
2022/04/25 04:25:42;;;;;;;;;;;21.80;43.60;;;;;;6294417;28;20298;-52
2022/04/25 04:28:43;;;;;;;;;;;21.80;43.60;;;;;;6308523;27;19929;-50
2022/04/25 04:31:46;;;;;;;;;;;21.80;43.70;;;;;;6305475;27;19931;-52
2022/04/25 04:34:47;;;;;;;;;;;21.80;43.70;;;;;;6309978;27;20030;-50
2022/04/25 04:37:48;;;;;;;;;;;21.80;43.60;;;;;;6314448;28;20027;-48
2022/04/25 04:40:50;;;;;;;;;;;21.60;43.60;;;;;;6311522;27;19967;-54
2022/04/25 04:43:52;;;;;;;;;;;21.80;43.60;;;;;;6306578;27;21084;-49
2022/04/25 04:46:53;;;;;;;;;;;21.70;43.60;;;;;;6307003;27;20053;-54
2022/04/25 04:49:55;;;;;;;;;;;21.80;43.60;;;;;;6305426;27;19931;-51
2022/04/25 04:52:57;;;;;;;;;;;21.80;43.60;;;;;;6305357;28;19935;-52
2022/04/25 04:56:00;;;;;;;;;;;21.70;43.60;;;;;;6278241;27;20062;-53
2022/04/25 04:59:01;;;;;;;;;;;21.70;43.60;;;;;;6310700;27;19932;-49
2022/04/25 05:02:06;;;;;;;;;;;21.80;43.70;;;;;;6308887;27;19931;-49
2022/04/25 05:05:08;;;;;;;;;;;21.70;43.50;;;;;;6298980;27;19931;-50
2022/04/25 05:08:09;;;;;;;;;;;21.70;43.50;;;;;;6307340;27;19930;-47
2022/04/25 05:11:11;;;;;;;;;;;21.70;43.50;;;;;;6301392;27;19931;-49
2022/04/25 05:14:14;;;;;;;;;;;21.70;43.60;;;;;;6299942;27;19931;-51
2022/04/25 05:17:15;;;;;;;;;;;21.70;43.60;;;;;;6302536;27;20090;-48
2022/04/25 05:20:17;;;;;;;;;;;21.70;43.50;;;;;;6307719;27;20042;-50
2022/04/25 05:23:18;;;;;;;;;;;21.50;43.40;;;;;;6302587;27;20050;-50
2022/04/25 05:26:20;;;;;;;;;;;21.70;43.50;;;;;;6297990;27;19966;-50
2022/04/25 05:29:21;;;;;;;;;;;21.70;43.50;;;;;;6304458;27;19928;-51
2022/04/25 05:32:23;;;;;;;;;;;21.70;43.40;;;;;;6301797;27;19924;-50
2022/04/25 05:35:25;;;;;;;;;;;21.80;43.60;;;;;;6291710;27;20050;-48
2022/04/25 05:38:27;;;;;;;;;;;21.70;43.40;;;;;;6297201;27;20004;-47
2022/04/25 05:41:29;;;;;;;;;;;21.60;43.40;;;;;;6284656;27;20086;-50
2022/04/25 05:44:30;;;;;;;;;;;21.80;43.50;;;;;;6277275;27;20038;-48
2022/04/25 05:47:33;;;;;;;;;;;21.50;43.20;;;;;;6286195;27;21006;-51
2022/04/25 05:53:49;;;;;;;;;;;21.80;43.20;;;;;;6283785;27;21521;-50
2022/04/25 05:56:51;;;;;;;;;;;22.10;43.30;;;;;;6289778;27;19947;-52
2022/04/25 05:59:52;;;;;;;;;;;21.70;43.10;;;;;;6284215;27;19934;-51
2022/04/25 06:02:55;;;;;;;;;;;21.80;43.10;;;;;;6284565;27;19931;-49
2022/04/25 06:05:56;;;;;;;;;;;21.80;43.10;;;;;;6294018;27;20094;-50
2022/04/25 06:08:57;;;;;;;;;;;21.80;43.60;;;;;;6286292;27;19966;-50
2022/04/25 06:12:00;;;;;;;;;;;21.90;43.00;;;;;;6276110;27;19935;-51
2022/04/25 06:15:01;;;;;;;;;;;21.90;43.00;;;;;;6273794;27;19931;-48
2022/04/25 06:18:03;;;;;;;;;;;21.90;42.80;;;;;;6269712;27;19971;-48
2022/04/25 06:21:04;;;;;;;;;;;22.00;42.80;;;;;;6258346;27;20000;-50
2022/04/25 06:24:06;;;;;;;;;;;21.90;42.70;;;;;;6276508;27;21309;-52
2022/04/25 06:27:09;;;;;;;;;;;22.10;42.70;;;;;;6278420;27;19935;-49
2022/04/25 06:30:11;;;;;;;;;;;22.10;42.60;;;;;;6271407;27;19938;-49
2022/04/25 06:33:12;;;;;;;;;;;22.10;42.60;;;;;;6267271;27;19931;-49
2022/04/25 06:36:14;;;;;;;;;;;22.20;42.60;;;;;;6252362;27;19936;-48
2022/04/25 06:39:15;;;;;;;;;;;22.20;42.60;;;;;;6237349;27;20049;-49
2022/04/25 06:42:18;;;;;;;;;;;22.00;42.50;;;;;;6233454;27;21491;-48
2022/04/25 06:45:19;;;;;;;;;;;22.20;42.60;;;;;;6224146;27;21930;-48
2022/04/25 06:48:21;;;;;;;;;;;22.10;42.50;;;;;;6230068;27;19932;-49
2022/04/25 06:51:24;;;;;;;;;;;22.20;42.50;;;;;;6219736;27;19942;-50
2022/04/25 06:54:26;;;;;;;;;;;22.10;42.50;;;;;;6171292;27;25684;-48
2022/04/25 06:57:30;;;;;;;;;;;22.30;42.50;;;;;;6193417;27;29435;-52
2022/04/25 07:00:31;;;;;;;;;;;22.30;42.50;;;;;;6131921;27;27569;-52
2022/04/25 07:03:37;;;;;;;;;;;22.20;42.60;;;;;;6069124;27;19939;-50
2022/04/25 07:06:39;;;;;;;;;;;22.30;42.60;;;;;;6062402;27;19935;-52
2022/04/25 07:09:41;;;;;;;;;;;22.20;42.60;;;;;;6078711;27;37301;-50
2022/04/25 07:12:43;;;;;;;;;;;22.30;42.70;;;;;;6064770;27;19998;-53
2022/04/25 07:15:44;;;;;;;;;;;22.30;42.60;;;;;;6049687;27;21495;-48
2022/04/25 07:18:46;;;;;;;;;;;22.20;42.50;;;;;;6066271;27;20059;-49
2022/04/25 07:31:29;;;;;;;;;;;22.60;42.90;;;;;;6090241;27;21304;-49
2022/04/25 07:34:30;;;;;;;;;;;22.40;42.30;;;;;;6078854;27;22225;-50
2022/04/25 07:37:33;;;;;;;;;;;22.30;42.20;;;;;;6127257;27;19939;-49
2022/04/25 07:40:36;;;;;;;;;;;23.20;42.60;;;;;;6057934;27;19938;-45
2022/04/25 07:43:37;;;;;;;;;;;22.40;42.10;;;;;;6090366;27;19931;-47
2022/04/25 07:46:41;;;;;;;;;;;22.60;42.10;;;;;;6027063;27;20038;-48
2022/04/25 07:49:43;;;;;;;;;;;22.70;42.20;;;;;;6081855;27;20254;-48
2022/04/25 07:52:49;;;;;;;;;;;22.70;42.10;;;;;;6101326;27;19939;-46
2022/04/25 07:55:50;;;;;;;;;;;22.70;42.10;;;;;;6106681;27;19931;-49
2022/04/25 07:58:52;;;;;;;;;;;22.70;42.00;;;;;;6060982;27;20274;-52
2022/04/25 08:01:54;;;;;;;;;;;22.80;42.10;;;;;;6075917;27;19942;-48
2022/04/25 08:04:56;;;;;;;;;;;22.80;42.00;;;;;;6040156;27;19935;-47
2022/04/25 08:07:57;;;;;;;;;;;22.80;42.00;;;;;;6063208;27;19954;-45
2022/04/25 08:10:58;;;;;;;;;;;22.80;41.90;;;;;;6079217;27;19931;-47
2022/04/25 08:20:30;;;;;;;;;;;22.80;41.90;;;;;;6097785;27;19936;-48
2022/04/25 08:23:31;;;;;;;;;;;23.00;41.90;;;;;;6063483;27;19937;-46
2022/04/25 08:26:33;;;;;;;;;;;23.00;41.80;;;;;;6064079;27;22000;-48
2022/04/25 08:29:35;;;;;;;;;;;23.00;41.70;;;;;;6059985;27;19938;-49
2022/04/25 08:32:37;;;;;;;;;;;23.10;41.80;;;;;;6073987;27;19931;-49
2022/04/25 08:35:39;;;;;;;;;;;23.10;41.80;;;;;;6075894;27;19935;-50
2022/04/25 08:38:43;;;;;;;;;;;23.10;41.60;;;;;;6088630;27;19982;-46
2022/04/25 08:41:45;;;;;;;;;;;23.20;41.70;;;;;;6093888;27;19932;-54
2022/04/25 08:44:50;;;;;;;;;;;23.00;41.50;;;;;;6096059;27;19966;-48
2022/04/25 08:47:53;;;;;;;;;;;23.20;41.50;;;;;;6065192;27;19953;-50
2022/04/25 08:50:55;;;;;;;;;;;23.20;41.60;;;;;;6078709;27;19931;-54
2022/04/25 08:53:57;;;;;;;;;;;23.30;41.70;;;;;;6079898;27;20041;-51
2022/04/25 08:56:59;;;;;;;;;;;23.10;41.60;;;;;;6098636;27;20062;-47
2022/04/25 09:00:03;;;;;;;;;;;23.30;41.70;;;;;;6084414;27;19931;-48
2022/04/25 09:03:05;;;;;;;;;;;23.30;41.70;;;;;;6094174;27;19979;-47
2022/04/25 09:06:08;;;;;;;;;;;23.20;41.60;;;;;;6124548;27;19971;-47
2022/04/25 09:09:09;;;;;;;;;;;23.20;41.60;;;;;;6076062;27;20378;-51
2022/04/25 09:12:13;;;;;;;;;;;23.30;41.60;;;;;;6091498;27;19938;-50
2022/04/25 09:15:17;;;;;;;;;;;23.30;41.60;;;;;;6107121;27;19938;-48
2022/04/25 09:18:26;;;;;;;;;;;23.30;41.90;;;;;;6089334;27;20593;-50
2022/04/25 09:21:27;;;;;;;;;;;23.30;41.50;;;;;;6100836;27;19937;-49
2022/04/25 09:24:29;;;;;;;;;;;23.40;41.60;;;;;;6086711;27;19979;-50
2022/04/25 09:27:31;;;;;;;;;;;23.40;41.50;;;;;;6119272;27;19939;-45
2022/04/25 09:30:35;;;;;;;;;;;23.40;41.50;;;;;;6092584;27;20171;-48
2022/04/25 09:33:36;;;;;;;;;;;23.30;41.40;;;;;;6077441;27;22587;-46
2022/04/25 09:36:46;;;;;;;;;;;23.50;41.50;;;;;;6115914;27;19931;-47
2022/04/25 09:39:51;;;;;;;;;;;23.60;41.50;;;;;;6097983;27;19977;-49
2022/04/25 09:43:03;;;;;;;;;;;23.50;41.40;;;;;;6105412;27;19931;-47
2022/04/25 09:46:06;;;;;;;;;;;23.60;41.50;;;;;;6095636;27;19931;-47
2022/04/25 09:49:08;;;;;;;;;;;23.60;41.50;;;;;;6103890;27;21579;-47
2022/04/25 09:52:11;;;;;;;;;;;23.50;42.00;;;;;;6088801;27;19936;-46
2022/04/25 09:55:14;;;;;;;;;;;23.60;41.40;;;;;;6100495;27;20064;-47
2022/04/25 09:58:17;;;;;;;;;;;23.60;41.40;;;;;;6094436;27;20062;-46
2022/04/25 10:01:19;;;;;;;;;;;23.60;41.50;;;;;;6098939;27;19931;-45
2022/04/25 10:04:31;;;;;;;;;;;23.60;41.40;;;;;;6093325;27;19994;-43
2022/04/25 10:07:33;;;;;;;;;;;23.70;41.40;;;;;;6054014;27;19940;-45
2022/04/25 10:10:34;;;;;;;;;;;23.70;41.40;;;;;;6093766;27;19978;-48
2022/04/25 10:13:36;;;;;;;;;;;23.70;42.00;;;;;;6085247;27;19931;-49
2022/04/25 10:16:38;;;;;;;;;;;23.60;41.40;;;;;;6094812;27;20935;-48
2022/04/25 10:19:40;;;;;;;;;;;23.60;41.40;;;;;;6078220;27;19931;-46
2022/04/25 10:22:42;;;;;;;;;;;23.60;41.40;;;;;;6124001;27;20037;-46
2022/04/25 10:25:47;;;;;;;;;;;23.70;41.40;;;;;;6087482;27;19939;-47
2022/04/25 10:28:52;;;;;;;;;;;23.70;41.40;;;;;;6092974;27;19962;-48
2022/04/25 10:31:57;;;;;;;;;;;23.70;41.40;;;;;;6126293;27;19937;-51
2022/04/25 10:35:00;;;;;;;;;;;23.60;41.30;;;;;;6122959;27;19932;-47
2022/04/25 10:38:47;;;;;;;;;;;23.70;41.40;;;;;;6158107;27;19931;-48
2022/04/25 10:45:01;;;;;;;;;;;23.90;41.50;;;;;;6164609;27;19938;-50
2022/04/25 10:48:08;;;;;;;;;;;23.70;41.40;;;;;;6201528;27;19935;-49
2022/04/25 10:51:10;;;;;;;;;;;23.60;41.30;;;;;;6214291;27;19939;-49
2022/04/25 10:54:14;;;;;;;;;;;23.70;41.40;;;;;;6198408;27;19968;-47
2022/04/25 10:57:15;;;;;;;;;;;23.70;41.40;;;;;;6206055;27;19939;-46
2022/04/25 11:00:32;;;;;;;;;;;23.60;41.40;;;;;;6195306;27;19974;-46
2022/04/25 11:03:34;;;;;;;;;;;23.70;41.50;;;;;;6194939;27;20050;-49
2022/04/25 11:06:35;;;;;;;;;;;23.70;41.50;;;;;;6204716;27;19931;-46
2022/04/25 11:09:37;;;;;;;;;;;23.70;41.40;;;;;;6187231;27;20086;-48
2022/04/25 11:12:55;;;;;;;;;;;23.70;41.40;;;;;;6170351;27;21119;-49
2022/04/25 11:15:57;;;;;;;;;;;23.70;41.40;;;;;;6179370;27;20058;-48
2022/04/25 11:19:11;;;;;;;;;;;23.50;41.40;;;;;;6179986;27;20007;-46
2022/04/25 11:22:27;;;;;;;;;;;23.70;41.40;;;;;;6141699;27;19931;-48
2022/04/25 11:25:44;;;;;;;;;;;23.70;41.60;;;;;;6150561;27;21291;-46
2022/04/25 11:29:01;;;;;;;;;;;24.60;41.90;;;;;;6170687;27;20230;-45
2022/04/25 11:32:17;;;;;;;;;;;23.70;41.30;;;;;;6138195;27;22045;-48
2022/04/25 11:35:23;;;;;;;;;;;23.80;41.30;;;;;;6147481;27;19932;-44
2022/04/25 11:39:50;;;;;;;;;;;23.70;41.20;;;;;;6163750;27;19940;-44
2022/04/25 11:41:45;;;;;;;;;;;23.80;41.20;;;;;;6124442;27;20066;-46
2022/04/25 11:44:47;;;;;;;;;;;23.80;41.20;;;;;;6121428;27;20061;-45
2022/04/25 11:47:49;;;;;;;;;;;23.80;41.20;;;;;;6138240;27;19970;-43
2022/04/25 11:50:51;;;;;;;;;;;23.80;41.20;;;;;;6143924;27;20106;-45
2022/04/25 11:53:53;;;;;;;;;;;23.90;41.10;;;;;;6170052;27;20070;-49
2022/04/25 11:56:59;;;;;;;;;;;23.80;41.00;;;;;;6137239;27;19939;-46
2022/04/25 12:00:09;;;;;;;;;;;23.90;41.10;;;;;;6112746;27;19938;-48
2022/04/25 12:03:19;;;;;;;;;;;24.00;41.00;;;;;;6062155;27;19931;-46
2022/04/25 12:06:22;;;;;;;;;;;24.00;41.00;;;;;;6046309;27;22110;-49
2022/04/25 12:15:55;;;;;;;;;;;24.70;41.50;;;;;;6082535;27;19974;-44
2022/04/25 12:19:00;;;;;;;;;;;23.80;41.10;;;;;;6107976;27;19982;-45
2022/04/25 12:22:03;;;;;;;;;;;23.90;41.20;;;;;;6116520;27;19932;-51
2022/04/25 12:25:13;;;;;;;;;;;23.80;41.20;;;;;;6113738;27;20031;-47
2022/04/25 12:28:16;;;;;;;;;;;23.80;41.20;;;;;;6069401;27;20015;-49
2022/04/25 12:31:19;;;;;;;;;;;23.80;41.20;;;;;;6057637;27;20068;-48
2022/04/25 12:34:21;;;;;;;;;;;23.80;41.20;;;;;;6086562;27;19935;-49
2022/04/25 12:37:23;;;;;;;;;;;23.70;41.20;;;;;;6080633;27;19970;-53
2022/04/25 12:40:24;;;;;;;;;;;23.60;41.00;;;;;;6037907;27;20997;-53
2022/04/25 12:43:37;;;;;;;;;;;23.80;41.00;;;;;;6059276;27;20159;-49
2022/04/25 12:46:40;;;;;;;;;;;23.80;40.90;;;;;;6073265;27;19937;-47
2022/04/25 12:49:43;;;;;;;;;;;23.80;40.90;;;;;;6041388;27;19931;-49
2022/04/25 12:52:46;;;;;;;;;;;23.80;40.80;;;;;;6051623;27;20984;-48
2022/04/25 12:55:49;;;;;;;;;;;24.00;40.80;;;;;;6087939;27;19932;-47
2022/04/25 12:58:52;;;;;;;;;;;24.00;40.70;;;;;;6059908;27;19931;-46
2022/04/25 13:01:59;;;;;;;;;;;24.00;40.70;;;;;;6071083;27;19932;-49
2022/04/25 13:05:03;;;;;;;;;;;23.90;41.00;;;;;;6080945;27;21378;-50
2022/04/25 13:08:05;;;;;;;;;;;24.20;40.60;;;;;;6051225;27;20019;-47
2022/04/25 13:11:07;;;;;;;;;;;24.00;40.60;;;;;;6063847;27;19931;-46
2022/04/25 13:14:08;;;;;;;;;;;24.20;40.60;;;;;;6075455;27;19931;-52
2022/04/25 13:17:10;;;;;;;;;;;24.20;40.50;;;;;;6063071;27;20066;-48
2022/04/25 13:20:13;;;;;;;;;;;24.20;40.40;;;;;;6090035;27;19989;-49
2022/04/25 13:23:15;;;;;;;;;;;24.10;40.40;;;;;;6072106;27;20005;-52
2022/04/25 13:26:17;;;;;;;;;;;24.20;40.50;;;;;;6070234;27;19931;-48
2022/04/25 13:29:19;;;;;;;;;;;24.20;40.40;;;;;;6065246;27;19970;-51
2022/04/25 13:32:20;;;;;;;;;;;24.20;40.30;;;;;;6059991;27;20935;-48
2022/04/25 13:35:24;;;;;;;;;;;24.30;40.30;;;;;;6062047;27;19935;-51
2022/04/25 13:38:27;;;;;;;;;;;24.30;40.30;;;;;;6075884;27;19935;-54
2022/04/25 13:41:29;;;;;;;;;;;24.20;40.30;;;;;;6078020;27;19931;-56
2022/04/25 13:44:31;;;;;;;;;;;24.20;40.30;;;;;;6091873;27;19935;-54
2022/04/25 13:47:33;;;;;;;;;;;24.20;40.30;;;;;;6086628;27;19938;-50
2022/04/25 13:50:35;;;;;;;;;;;24.10;40.30;;;;;;6047559;27;19935;-51
2022/04/25 13:53:38;;;;;;;;;;;24.20;40.30;;;;;;6088470;27;19938;-53
2022/04/25 13:56:41;;;;;;;;;;;24.10;40.20;;;;;;6104938;27;19931;-47
2022/04/25 13:59:43;;;;;;;;;;;24.20;40.20;;;;;;6049938;27;19931;-50
2022/04/25 14:05:58;;;;;;;;;;;24.20;40.20;;;;;;6095706;27;20514;-50
2022/04/25 14:09:02;;;;;;;;;;;24.20;40.20;;;;;;6077504;27;20110;-48
2022/04/25 14:12:03;;;;;;;;;;;24.20;40.30;;;;;;6076175;27;19940;-50
2022/04/25 14:15:05;;;;;;;;;;;24.20;40.30;;;;;;6093389;27;20450;-49
2022/04/25 14:18:08;;;;;;;;;;;24.10;40.20;;;;;;6082692;27;19931;-50
2022/04/25 14:21:10;;;;;;;;;;;24.30;40.30;;;;;;6015150;27;19932;-50
2022/04/25 14:24:12;;;;;;;;;;;24.10;40.20;;;;;;6072039;27;19931;-48
2022/04/25 14:27:14;;;;;;;;;;;24.10;40.30;;;;;;6070182;27;19931;-51
2022/04/25 14:30:15;;;;;;;;;;;24.00;40.30;;;;;;6069141;27;19969;-51
2022/04/25 14:33:17;;;;;;;;;;;24.00;40.30;;;;;;6050657;27;20016;-53
2022/04/25 14:36:19;;;;;;;;;;;24.10;40.70;;;;;;6079640;27;19931;-52
2022/04/25 14:39:21;;;;;;;;;;;24.00;40.20;;;;;;6057169;27;19938;-50
2022/04/25 14:42:22;;;;;;;;;;;24.00;40.20;;;;;;6077456;27;21025;-52
2022/04/25 14:45:27;;;;;;;;;;;24.00;40.20;;;;;;6083135;27;19931;-49
2022/04/25 14:48:28;;;;;;;;;;;24.00;40.10;;;;;;6086426;27;20023;-53
2022/04/25 14:54:46;;;;;;;;;;;23.90;40.10;;;;;;6102689;27;20267;-48
2022/04/25 14:57:50;;;;;;;;;;;24.00;40.10;;;;;;6084937;27;19931;-50
2022/04/25 15:00:54;;;;;;;;;;;24.00;40.10;;;;;;6061094;27;19932;-51
2022/04/25 15:03:56;;;;;;;;;;;24.00;40.10;;;;;;6074628;27;20063;-50
2022/04/25 15:06:59;;;;;;;;;;;24.00;40.00;;;;;;6087132;27;19932;-54
2022/04/25 15:10:01;;;;;;;;;;;24.00;40.00;;;;;;6087455;27;20007;-51
2022/04/25 15:13:03;;;;;;;;;;;23.90;40.00;;;;;;6060587;27;19958;-52
2022/04/25 15:16:05;;;;;;;;;;;24.00;40.00;;;;;;6071544;27;22472;-50
2022/04/25 15:19:06;;;;;;;;;;;24.00;39.90;;;;;;6082462;27;19939;-49
2022/04/25 15:22:08;;;;;;;;;;;24.00;40.00;;;;;;6106981;27;20062;-53
2022/04/25 15:25:10;;;;;;;;;;;24.00;39.90;;;;;;6102112;27;20000;-52
2022/04/25 15:28:12;;;;;;;;;;;24.00;39.90;;;;;;6093444;27;20573;-53
2022/04/25 15:31:14;;;;;;;;;;;24.00;39.90;;;;;;6095599;27;20061;-52
2022/04/25 15:34:15;;;;;;;;;;;24.20;40.10;;;;;;6087061;27;23155;-53
2022/04/25 15:37:17;;;;;;;;;;;24.00;39.80;;;;;;6102418;27;19974;-54
2022/04/25 15:40:26;;;;;;;;;;;24.00;39.80;;;;;;6115770;27;20034;-58
2022/04/25 15:43:27;;;;;;;;;;;24.00;39.70;;;;;;6108235;27;19931;-47
2022/04/25 15:46:29;;;;;;;;;;;23.90;39.70;;;;;;6117704;27;19945;-51
2022/04/25 15:49:30;;;;;;;;;;;24.00;39.70;;;;;;6107110;27;25925;-49
2022/04/25 15:52:32;;;;;;;;;;;24.10;40.20;;;;;;6125221;27;19931;-50
2022/04/25 15:58:49;;;;;;;;;;;24.00;39.70;;;;;;6132241;27;20027;-50
2022/04/25 16:01:51;;;;;;;;;;;23.90;39.70;;;;;;6155647;27;20210;-50
2022/04/25 16:04:53;;;;;;;;;;;23.90;39.60;;;;;;6147554;27;20898;-47
2022/04/25 16:07:54;;;;;;;;;;;24.00;39.70;;;;;;6159347;27;22535;-50
2022/04/25 16:10:56;;;;;;;;;;;23.90;39.60;;;;;;6144979;27;22716;-51
2022/04/25 16:13:57;;;;;;;;;;;24.00;39.60;;;;;;6155024;27;20011;-52
2022/04/25 16:16:59;;;;;;;;;;;24.00;39.60;;;;;;6175660;27;19982;-49
2022/04/25 16:20:01;;;;;;;;;;;24.00;39.60;;;;;;6209741;27;19931;-49
2022/04/25 16:23:02;;;;;;;;;;;24.00;39.50;;;;;;6196001;27;19939;-51
2022/04/25 16:26:05;;;;;;;;;;;24.00;39.60;;;;;;6205013;27;19932;-51
2022/04/25 16:29:09;;;;;;;;;;;24.10;39.60;;;;;;6227553;27;19974;-50
2022/04/25 16:32:16;;;;;;;;;;;24.00;39.50;;;;;;6217672;27;20190;-52
2022/04/25 16:35:18;;;;;;;;;;;24.00;39.50;;;;;;6221629;27;19931;-49
2022/04/25 16:38:20;;;;;;;;;;;24.00;39.40;;;;;;6228305;27;20140;-49
2022/04/25 16:41:23;;;;;;;;;;;23.90;39.40;;;;;;6202689;27;19994;-50
2022/04/25 16:44:25;;;;;;;;;;;24.00;39.50;;;;;;6235345;27;20054;-49
2022/04/25 16:47:26;;;;;;;;;;;24.00;39.50;;;;;;6236227;27;19943;-52
2022/04/25 16:50:28;;;;;;;;;;;23.80;39.40;;;;;;6242071;27;20058;-51
2022/04/25 16:53:29;;;;;;;;;;;24.00;39.50;;;;;;6238188;27;19939;-50
2022/04/25 16:56:31;;;;;;;;;;;24.00;39.50;;;;;;6242723;27;20305;-50
2022/04/25 16:59:34;;;;;;;;;;;23.90;39.40;;;;;;6224468;27;19936;-50
2022/04/25 17:02:35;;;;;;;;;;;23.90;39.30;;;;;;6239917;27;20606;-52
2022/04/25 17:05:37;;;;;;;;;;;23.90;39.30;;;;;;6234465;27;19932;-51
2022/04/25 17:08:39;;;;;;;;;;;24.00;39.40;;;;;;6240520;27;19932;-49
2022/04/25 17:11:41;;;;;;;;;;;24.10;39.50;;;;;;6263380;27;20011;-50
2022/04/25 17:14:42;;;;;;;;;;;23.90;39.30;;;;;;6246384;27;19938;-53
2022/04/25 17:17:43;;;;;;;;;;;24.20;39.50;;;;;;6258136;27;21164;-50
2022/04/25 17:20:45;;;;;;;;;;;24.00;39.30;;;;;;6244617;27;22385;-50
2022/04/25 17:23:48;;;;;;;;;;;24.00;39.30;;;;;;6250966;27;20120;-49
2022/04/25 17:26:50;;;;;;;;;;;23.80;39.20;;;;;;6261915;27;22282;-51
2022/04/25 17:29:53;;;;;;;;;;;24.00;39.30;;;;;;6267821;27;19932;-48
2022/04/25 17:36:09;;;;;;;;;;;24.00;39.30;;;;;;6265546;27;19931;-50
